Time;durP1;ratioP1;P1;durP2;ratioP2;P2;SDS_P1;SDS_P2;PMS_P1;PMS_P2;Temp;Humidity;BMP_temperature;BMP_pressure;BME280_temperature;BME280_humidity;BME280_pressure;Samples;Min_cycle;Max_cycle;Signal;HPM_P1;HPM_P2
2023/06/13 00:00:49;;;;;;;5.37;4.12;;;22.80;81.90;;;;;;10933981;32;20031;-74
2023/06/13 00:06:54;;;;;;;6.25;4.12;;;22.60;81.70;;;;;;10892629;32;20023;-74
2023/06/13 00:12:57;;;;;;;5.72;4.20;;;22.50;81.60;;;;;;10896233;32;20027;-75
2023/06/13 00:19:00;;;;;;;6.43;4.47;;;22.40;81.60;;;;;;10909428;32;20353;-73
2023/06/13 00:25:10;;;;;;;8.07;3.50;;;22.20;81.90;;;;;;10912481;32;20425;-74
2023/06/13 00:31:12;;;;;;;5.60;3.58;;;22.10;82.60;;;;;;10983455;32;20393;-75
2023/06/13 00:37:16;;;;;;;5.97;4.15;;;22.20;82.50;;;;;;10984201;32;20041;-75
2023/06/13 00:43:19;;;;;;;7.05;3.90;;;22.30;82.40;;;;;;10983274;32;20037;-74
2023/06/13 00:49:21;;;;;;;7.37;4.70;;;22.20;82.30;;;;;;10984099;32;20397;-74
2023/06/13 00:55:25;;;;;;;8.25;4.00;;;22.00;82.40;;;;;;10983718;32;20080;-73
2023/06/13 01:01:30;;;;;;;7.25;5.50;;;21.90;83.00;;;;;;10983318;32;20048;-74
2023/06/13 01:07:33;;;;;;;3.72;2.37;;;21.90;82.80;;;;;;10968394;32;20057;-74
2023/06/13 01:13:53;;;;;;;5.82;4.95;;;21.80;83.20;;;;;;10982761;32;20439;-74
2023/06/13 01:20:03;;;;;;;5.62;4.05;;;21.80;82.90;;;;;;10983040;32;20019;-73
2023/06/13 01:26:12;;;;;;;13.32;5.57;;;21.80;83.10;;;;;;10982261;32;20026;-73
2023/06/13 01:32:15;;;;;;;7.75;3.85;;;21.80;83.00;;;;;;10982244;32;20030;-72
2023/06/13 01:38:19;;;;;;;4.82;3.65;;;21.80;83.20;;;;;;10981734;32;20332;-74
2023/06/13 01:44:22;;;;;;;12.60;4.85;;;21.80;83.00;;;;;;10981640;32;20015;-74
2023/06/13 01:50:27;;;;;;;5.18;3.20;;;21.80;82.50;;;;;;10967929;32;20455;-74
2023/06/13 01:56:32;;;;;;;7.62;4.78;;;21.70;82.70;;;;;;10981006;32;20207;-74
2023/06/13 02:02:34;;;;;;;5.20;3.60;;;21.80;83.00;;;;;;10980775;32;20054;-73
2023/06/13 02:08:36;;;;;;;4.25;3.25;;;21.80;83.00;;;;;;10980478;32;20023;-74
2023/06/13 02:14:39;;;;;;;6.22;3.60;;;21.80;83.00;;;;;;10980621;32;20022;-74
2023/06/13 02:20:41;;;;;;;4.65;2.87;;;21.80;83.10;;;;;;10980332;32;20027;-73
2023/06/13 02:26:45;;;;;;;6.10;3.20;;;21.80;83.20;;;;;;10966468;32;20074;-73
2023/06/13 02:32:48;;;;;;;5.75;3.58;;;21.90;83.20;;;;;;10978158;32;20038;-71
2023/06/13 02:38:52;;;;;;;4.47;2.60;;;21.80;82.90;;;;;;10979965;32;20040;-72
2023/06/13 02:44:55;;;;;;;3.83;2.58;;;21.80;83.30;;;;;;10979872;32;20400;-73
2023/06/13 02:50:57;;;;;;;4.18;2.80;;;21.90;83.30;;;;;;10974092;32;20439;-72
2023/06/13 02:56:59;;;;;;;4.87;3.05;;;21.80;83.10;;;;;;10979413;32;20041;-73
2023/06/13 03:03:02;;;;;;;4.55;3.28;;;21.80;83.00;;;;;;10965287;32;20060;-73
2023/06/13 03:09:04;;;;;;;6.07;3.85;;;21.60;83.30;;;;;;10979205;32;20058;-73
2023/06/13 03:15:08;;;;;;;6.55;3.45;;;21.60;83.80;;;;;;10975280;32;20394;-73
2023/06/13 03:21:10;;;;;;;3.97;2.35;;;21.60;83.60;;;;;;10979126;32;20041;-74
2023/06/13 03:27:12;;;;;;;4.75;2.80;;;21.70;83.80;;;;;;10978263;32;20049;-73
2023/06/13 03:33:15;;;;;;;2.83;2.05;;;21.80;83.60;;;;;;10973536;32;20026;-74
2023/06/13 03:39:18;;;;;;;3.55;2.30;;;22.00;83.20;;;;;;10970904;32;20053;-73
2023/06/13 03:45:24;;;;;;;4.95;2.33;;;22.10;83.50;;;;;;10985933;32;20057;-73
2023/06/13 03:51:26;;;;;;;3.70;2.37;;;22.30;83.50;;;;;;10984690;32;20030;-73
2023/06/13 03:57:31;;;;;;;4.53;2.20;;;22.30;83.20;;;;;;10985469;32;20010;-73
2023/06/13 04:03:35;;;;;;;3.05;1.42;;;22.30;83.00;;;;;;10985255;32;20081;-74
2023/06/13 04:09:37;;;;;;;12.35;2.33;;;22.40;82.90;;;;;;10981942;32;20053;-73
2023/06/13 04:15:40;;;;;;;3.42;1.80;;;22.50;82.70;;;;;;10984744;32;20052;-73
2023/06/13 04:21:42;;;;;;;1.77;1.23;;;22.50;82.50;;;;;;10984566;32;20018;-73
2023/06/13 04:27:44;;;;;;;2.75;1.87;;;22.30;82.40;;;;;;10981627;32;20050;-73
2023/06/13 04:33:46;;;;;;;2.50;1.83;;;22.20;82.60;;;;;;10984077;32;20031;-73
2023/06/13 04:39:50;;;;;;;3.53;2.33;;;22.30;82.20;;;;;;10982118;32;20049;-73
2023/06/13 04:45:52;;;;;;;4.10;2.20;;;22.30;82.00;;;;;;10983586;32;20316;-73
2023/06/13 04:51:55;;;;;;;4.47;1.65;;;22.30;82.00;;;;;;10982997;32;20031;-73
2023/06/13 04:57:57;;;;;;;2.28;1.45;;;22.10;82.20;;;;;;10981701;32;20027;-73
2023/06/13 05:03:59;;;;;;;2.70;1.83;;;22.00;82.50;;;;;;10982953;32;20026;-73
2023/06/13 05:10:02;;;;;;;8.77;2.75;;;22.00;82.40;;;;;;10969005;32;20034;-73
2023/06/13 05:16:05;;;;;;;6.80;2.67;;;22.10;82.20;;;;;;10982669;32;20066;-73
2023/06/13 05:22:08;;;;;;;2.90;2.03;;;22.20;81.80;;;;;;10982314;32;20041;-73
2023/06/13 05:28:10;;;;;;;2.10;1.45;;;22.20;81.70;;;;;;10968160;32;20038;-73
2023/06/13 05:34:12;;;;;;;2.85;1.83;;;21.90;81.80;;;;;;10981501;32;20057;-73
2023/06/13 05:40:14;;;;;;;6.75;2.08;;;21.80;82.00;;;;;;10981609;32;20332;-73
2023/06/13 05:46:16;;;;;;;3.67;2.25;;;21.90;82.10;;;;;;10977614;32;20019;-73
2023/06/13 05:52:18;;;;;;;2.50;1.67;;;21.90;82.00;;;;;;10980786;32;20053;-73
2023/06/13 05:58:20;;;;;;;3.60;2.37;;;22.00;81.90;;;;;;10978107;32;20026;-73
2023/06/13 06:04:22;;;;;;;3.25;2.00;;;22.00;82.00;;;;;;10980616;32;20018;-73
2023/06/13 06:10:24;;;;;;;3.80;2.28;;;22.00;82.00;;;;;;10980536;32;20022;-73
2023/06/13 06:16:28;;;;;;;4.10;2.62;;;22.10;82.30;;;;;;10980356;32;20041;-73
2023/06/13 06:22:31;;;;;;;2.97;2.03;;;22.20;82.30;;;;;;10980295;32;20019;-73
2023/06/13 06:28:33;;;;;;;4.80;2.37;;;22.30;82.10;;;;;;10979697;32;20030;-73
2023/06/13 06:34:35;;;;;;;4.20;2.03;;;22.30;81.90;;;;;;10979482;32;20486;-73
2023/06/13 06:40:48;;;;;;;8.25;2.37;;;22.30;81.90;;;;;;10979329;32;20033;-72
2023/06/13 06:46:51;;;;;;;2.17;1.42;;;22.20;82.00;;;;;;10979643;32;20423;-72
2023/06/13 06:52:53;;;;;;;2.80;2.08;;;22.00;82.00;;;;;;10952908;32;20065;-72
2023/06/13 06:58:55;;;;;;;4.87;2.10;;;22.00;82.30;;;;;;10978983;32;20073;-72
2023/06/13 07:04:58;;;;;;;4.30;2.60;;;22.20;82.10;;;;;;10978727;32;20049;-72
2023/06/13 07:11:01;;;;;;;4.37;2.50;;;22.30;81.90;;;;;;10976492;32;20064;-73
2023/06/13 07:17:03;;;;;;;3.25;2.12;;;22.30;81.90;;;;;;10960748;32;20049;-73
2023/06/13 07:23:06;;;;;;;2.87;1.83;;;22.30;82.00;;;;;;10978874;32;20088;-73
2023/06/13 07:29:08;;;;;;;4.72;2.42;;;22.40;82.20;;;;;;10968334;26;20027;-73
2023/06/13 07:35:14;;;;;;;4.30;2.87;;;22.50;82.50;;;;;;10945917;32;20026;-73
2023/06/13 07:41:16;;;;;;;4.12;2.58;;;22.40;83.10;;;;;;10940366;32;20065;-73
2023/06/13 07:47:18;;;;;;;6.85;4.40;;;22.40;83.20;;;;;;10928106;32;20019;-73
2023/06/13 07:53:20;;;;;;;7.25;4.40;;;22.40;83.30;;;;;;10926522;32;20057;-73
2023/06/13 07:59:21;;;;;;;3.05;2.28;;;22.40;83.60;;;;;;10936512;32;20041;-73
2023/06/13 08:05:24;;;;;;;3.05;1.95;;;22.30;83.60;;;;;;10940440;32;20027;-73
2023/06/13 08:11:26;;;;;;;2.37;1.70;;;22.40;83.90;;;;;;10926624;32;20066;-74
2023/06/13 08:17:28;;;;;;;4.47;2.50;;;22.50;83.90;;;;;;10947132;32;20011;-72
2023/06/13 08:23:30;;;;;;;2.35;1.90;;;22.40;84.00;;;;;;10946961;32;20329;-73
2023/06/13 08:29:32;;;;;;;4.07;2.78;;;22.50;84.00;;;;;;10946685;32;20023;-73
2023/06/13 08:35:34;;;;;;;3.37;1.95;;;22.50;83.60;;;;;;10946287;32;20015;-73
2023/06/13 08:41:57;;;;;;;5.03;2.47;;;22.50;83.70;;;;;;10946199;32;20015;-73
2023/06/13 08:48:00;;;;;;;3.85;2.08;;;22.70;83.30;;;;;;10946419;32;20348;-75
2023/06/13 08:54:36;;;;;;;2.92;1.87;;;22.80;83.60;;;;;;10946042;32;20321;-74
2023/06/13 09:00:40;;;;;;;2.78;1.70;;;23.10;82.70;;;;;;10943558;32;20037;-74
2023/06/13 09:06:43;;;;;;;3.62;2.25;;;23.30;82.50;;;;;;10944168;32;20014;-75
2023/06/13 09:12:46;;;;;;;3.33;2.12;;;23.20;80.80;;;;;;10931357;32;20038;-74
2023/06/13 09:18:49;;;;;;;2.30;1.92;;;22.90;80.60;;;;;;10944380;32;20321;-74
2023/06/13 09:24:52;;;;;;;2.90;2.28;;;23.00;81.30;;;;;;10930798;32;20045;-74
2023/06/13 09:30:55;;;;;;;3.58;2.12;;;23.20;81.20;;;;;;10940475;32;20045;-73
2023/06/13 09:36:58;;;;;;;4.90;2.62;;;23.20;81.10;;;;;;10944461;32;20034;-73
2023/06/13 09:43:02;;;;;;;3.15;2.17;;;23.20;81.40;;;;;;10928009;32;20011;-73
2023/06/13 09:49:06;;;;;;;2.72;1.98;;;23.40;81.80;;;;;;10943942;32;20015;-73
2023/06/13 09:55:08;;;;;;;3.00;2.12;;;23.60;82.10;;;;;;10943871;32;20011;-73
2023/06/13 10:01:15;;;;;;;4.28;2.58;;;23.80;81.80;;;;;;10943452;32;20302;-73
2023/06/13 10:07:17;;;;;;;4.18;2.78;;;24.00;82.00;;;;;;10943002;32;20325;-74
2023/06/13 10:13:25;;;;;;;2.17;1.58;;;24.00;81.30;;;;;;10943009;32;20023;-73
2023/06/13 10:19:27;;;;;;;;;;;24.10;80.80;;;;;;10942965;32;20014;-73
2023/06/13 10:25:30;;;;;;;4.78;2.47;;;24.20;81.10;;;;;;10942863;32;20221;-73
2023/06/13 10:31:54;;;;;;;4.12;2.75;;;24.10;80.70;;;;;;10942601;32;20052;-74
2023/06/13 10:38:17;;;;;;;4.50;2.58;;;24.00;81.00;;;;;;10941700;32;20019;-73
2023/06/13 10:44:31;;;;;;;4.60;2.70;;;24.10;81.10;;;;;;10942124;32;20042;-73
2023/06/13 10:50:39;;;;;;;5.12;2.92;;;24.10;81.10;;;;;;10928631;32;20049;-74
2023/06/13 10:56:43;;;;;;;4.47;3.20;;;24.10;79.80;;;;;;10941913;32;20019;-71
2023/06/13 11:02:46;;;;;;;4.25;2.33;;;24.20;79.20;;;;;;10941828;32;20165;-73
2023/06/13 11:09:08;;;;;;;4.07;3.33;;;24.30;78.00;;;;;;10941849;32;20033;-73
2023/06/13 11:15:27;;;;;;;3.28;2.22;;;24.30;77.50;;;;;;10941256;32;20015;-73
2023/06/13 11:21:30;;;;;;;3.80;1.95;;;24.30;77.10;;;;;;10941382;32;20423;-73
2023/06/13 11:27:33;;;;;;;3.90;2.20;;;24.30;77.50;;;;;;10941210;32;20405;-74
2023/06/13 11:33:40;;;;;;;3.58;1.83;;;24.50;77.40;;;;;;10941226;32;20069;-74
2023/06/13 11:39:45;;;;;;;4.03;2.37;;;24.60;77.70;;;;;;10940942;32;20017;-72
2023/06/13 11:45:47;;;;;;;5.37;3.40;;;24.80;76.80;;;;;;10940055;32;20049;-73
2023/06/13 11:51:49;;;;;;;7.05;2.33;;;25.60;75.10;;;;;;10946683;32;20041;-73
2023/06/13 11:57:51;;;;;;;4.43;2.72;;;25.50;74.60;;;;;;10947983;32;20010;-73
2023/06/13 12:03:58;;;;;;;5.32;3.65;;;25.60;73.10;;;;;;10948149;32;20015;-72
2023/06/13 12:10:00;;;;;;;5.57;2.92;;;26.00;72.00;;;;;;10947493;32;20045;-74
2023/06/13 12:16:04;;;;;;;4.10;2.65;;;25.80;72.00;;;;;;10947420;32;20370;-73
2023/06/13 12:22:08;;;;;;;2.92;1.83;;;25.80;73.30;;;;;;10946971;32;20007;-73
2023/06/13 12:28:12;;;;;;;3.90;1.90;;;26.10;71.90;;;;;;10957123;32;20364;-73
2023/06/13 12:34:27;;;;;;;4.10;2.55;;;26.10;71.00;;;;;;10979799;32;20030;-73
2023/06/13 12:41:11;;;;;;;5.95;2.45;;;26.10;71.00;;;;;;10984071;32;20052;-72
2023/06/13 12:47:14;;;;;;;3.62;2.40;;;26.00;71.30;;;;;;10983796;32;20018;-73
2023/06/13 12:53:44;;;;;;;2.97;2.00;;;25.80;72.70;;;;;;10983430;32;20324;-73
2023/06/13 12:59:52;;;;;;;4.97;2.12;;;25.80;71.60;;;;;;10971592;32;20015;-72
2023/06/13 13:05:55;;;;;;;2.58;1.83;;;25.80;71.10;;;;;;10983122;32;20041;-73
2023/06/13 13:12:00;;;;;;;3.53;2.10;;;25.90;70.50;;;;;;10978502;32;20049;-73
2023/06/13 13:18:18;;;;;;;4.43;2.47;;;26.00;69.70;;;;;;10978323;32;20039;-72
2023/06/13 13:24:23;;;;;;;3.67;1.87;;;26.30;69.90;;;;;;10982502;32;20020;-74
2023/06/13 13:30:26;;;;;;;3.25;2.35;;;26.40;69.20;;;;;;10978107;32;20058;-72
2023/06/13 13:36:28;;;;;;;3.28;2.28;;;26.30;68.90;;;;;;10968625;32;20015;-73
2023/06/13 13:42:36;;;;;;;4.90;2.30;;;26.30;68.90;;;;;;10981910;32;20329;-73
2023/06/13 13:48:38;;;;;;;4.50;2.03;;;26.30;68.20;;;;;;10977054;32;20031;-72
2023/06/13 13:54:41;;;;;;;4.50;2.83;;;26.30;67.90;;;;;;10966895;32;20042;-73
2023/06/13 14:00:43;;;;;;;3.50;2.33;;;26.30;66.90;;;;;;10980676;32;20361;-73
2023/06/13 14:06:45;;;;;;;4.15;2.50;;;26.40;67.00;;;;;;10981119;32;20483;-73
2023/06/13 14:12:50;;;;;;;4.10;2.20;;;26.30;68.10;;;;;;10980800;32;20049;-72
2023/06/13 14:18:52;;;;;;;2.30;1.70;;;26.40;67.60;;;;;;10980684;32;20018;-74
2023/06/13 14:24:54;;;;;;;3.40;2.28;;;26.30;67.80;;;;;;10977280;32;20438;-73
2023/06/13 14:30:56;;;;;;;3.35;2.00;;;26.40;69.10;;;;;;10976185;32;20080;-72
2023/06/13 14:36:58;;;;;;;2.40;1.73;;;26.40;68.20;;;;;;10980084;32;20007;-73
2023/06/13 14:43:00;;;;;;;5.32;2.05;;;26.50;67.50;;;;;;10979865;32;20037;-73
2023/06/13 14:49:02;;;;;;;3.95;2.40;;;26.70;66.30;;;;;;10979463;32;20011;-73
2023/06/13 14:55:04;;;;;;;2.30;1.60;;;26.80;65.40;;;;;;10965741;32;20030;-73
2023/06/13 15:01:34;;;;;;;4.82;2.95;;;26.80;66.60;;;;;;10979094;32;20069;-72
2023/06/13 15:07:36;;;;;;;4.55;2.40;;;26.60;68.10;;;;;;10965080;32;20068;-73
2023/06/13 15:13:39;;;;;;;5.50;3.58;;;26.80;66.90;;;;;;10979186;32;20270;-73
2023/06/13 15:19:41;;;;;;;5.80;3.25;;;26.90;66.30;;;;;;10965479;32;20023;-72
2023/06/13 15:25:43;;;;;;;7.87;3.65;;;26.80;67.60;;;;;;10983644;27;20034;-73
2023/06/13 15:31:45;;;;;;;2.70;1.98;;;26.80;66.30;;;;;;10948867;32;20018;-73
2023/06/13 15:37:47;;;;;;;3.80;2.33;;;26.80;66.10;;;;;;10948709;32;20398;-73
2023/06/13 15:43:51;;;;;;;3.55;1.87;;;26.90;65.70;;;;;;10948361;32;20019;-73
2023/06/13 15:49:59;;;;;;;3.70;2.20;;;27.00;65.20;;;;;;10947368;32;20364;-73
2023/06/13 15:56:03;;;;;;;3.20;1.52;;;27.10;66.20;;;;;;10947442;32;20057;-73
2023/06/13 16:02:07;;;;;;;2.08;1.55;;;27.10;65.40;;;;;;10946972;32;20027;-73
2023/06/13 16:08:11;;;;;;;2.58;1.55;;;27.20;65.00;;;;;;10929453;32;20334;-73
2023/06/13 16:14:12;;;;;;;5.00;1.80;;;27.30;64.50;;;;;;10944434;32;20345;-73
2023/06/13 16:20:15;;;;;;;1.23;1.02;;;27.20;63.50;;;;;;10946141;32;20027;-73
2023/06/13 16:26:17;;;;;;;2.30;1.55;;;27.20;63.10;;;;;;10932900;32;20023;-73
2023/06/13 16:32:19;;;;;;;1.77;1.20;;;27.10;63.50;;;;;;10946255;32;20049;-73
2023/06/13 16:38:21;;;;;;;1.95;1.50;;;27.00;63.30;;;;;;10946634;32;20049;-73
2023/06/13 16:44:26;;;;;;;2.72;1.48;;;27.00;63.30;;;;;;10946455;32;20045;-73
2023/06/13 16:51:03;;;;;;;1.27;1.00;;;26.90;63.00;;;;;;10794201;33;20062;-72
2023/06/13 16:57:06;;;;;;;2.00;1.25;;;26.80;62.80;;;;;;10793612;33;20087;-73
2023/06/13 17:03:10;;;;;;;1.40;1.20;;;26.80;62.80;;;;;;10793165;33;20033;-73
2023/06/13 17:09:12;;;;;;;2.78;1.55;;;26.80;62.90;;;;;;10789523;33;20436;-73
2023/06/13 17:15:14;;;;;;;2.70;1.52;;;26.80;62.90;;;;;;10791983;33;20079;-73
2023/06/13 17:21:16;;;;;;;5.60;1.85;;;26.80;62.60;;;;;;10787386;33;20082;-73
2023/06/13 17:27:19;;;;;;;1.73;1.30;;;26.80;62.00;;;;;;10792125;33;20058;-72
2023/06/13 17:33:21;;;;;;;2.00;1.30;;;26.80;61.90;;;;;;10882069;32;20035;-73
2023/06/13 17:39:24;;;;;;;2.15;1.20;;;26.90;61.70;;;;;;10944344;32;20054;-73
2023/06/13 17:45:26;;;;;;;7.10;1.75;;;27.00;61.60;;;;;;10943869;32;20350;-73
2023/06/13 17:51:28;;;;;;;1.08;0.82;;;26.90;62.10;;;;;;10925735;32;20065;-73
2023/06/13 17:57:30;;;;;;;1.80;1.00;;;26.80;63.00;;;;;;10943837;32;20344;-73
2023/06/13 18:03:32;;;;;;;2.80;1.58;;;26.80;63.70;;;;;;10943648;32;20023;-73
2023/06/13 18:09:35;;;;;;;2.20;1.10;;;26.80;64.20;;;;;;10943338;32;20053;-73
2023/06/13 18:15:37;;;;;;;2.17;1.20;;;26.60;63.80;;;;;;10942955;32;20022;-73
2023/06/13 18:21:39;;;;;;;1.83;1.45;;;26.50;64.20;;;;;;10928201;32;20049;-73
2023/06/13 18:27:42;;;;;;;2.53;1.27;;;26.30;64.70;;;;;;10929039;32;20019;-74
2023/06/13 18:33:44;;;;;;;1.58;1.17;;;26.30;65.30;;;;;;10942210;32;20027;-73
2023/06/13 18:39:46;;;;;;;2.70;2.00;;;26.10;65.70;;;;;;10941721;32;20399;-73
2023/06/13 18:45:48;;;;;;;2.75;1.77;;;26.00;66.00;;;;;;10941753;32;20018;-73
2023/06/13 18:51:51;;;;;;;2.55;1.55;;;25.90;66.70;;;;;;10940474;32;20302;-73
2023/06/13 18:57:53;;;;;;;5.28;1.55;;;25.80;67.40;;;;;;10940961;32;20037;-73
2023/06/13 19:03:55;;;;;;;3.15;1.87;;;25.70;67.80;;;;;;10941253;32;20431;-73
2023/06/13 19:09:57;;;;;;;2.10;1.50;;;25.70;68.40;;;;;;10941273;32;20392;-73
2023/06/13 19:16:02;;;;;;;3.08;1.60;;;25.50;68.80;;;;;;10927894;32;20053;-73
2023/06/13 19:22:06;;;;;;;3.58;2.10;;;25.50;69.20;;;;;;10915034;32;20393;-73
2023/06/13 19:28:09;;;;;;;3.80;1.62;;;25.40;69.80;;;;;;10940678;32;20035;-73
2023/06/13 19:34:11;;;;;;;1.58;1.35;;;25.30;70.30;;;;;;10940670;32;20018;-73
2023/06/13 19:40:16;;;;;;;3.87;2.15;;;25.20;71.10;;;;;;10940466;32;20019;-73
2023/06/13 19:46:18;;;;;;;6.90;2.08;;;25.20;71.40;;;;;;10938623;32;20045;-73
2023/06/13 19:52:21;;;;;;;3.35;1.60;;;25.10;71.60;;;;;;10940213;32;20049;-73
2023/06/13 19:58:24;;;;;;;3.53;2.20;;;25.00;71.80;;;;;;10940004;32;20030;-73
2023/06/13 20:04:26;;;;;;;3.65;1.80;;;24.90;72.20;;;;;;10940658;32;20027;-73
2023/06/13 20:10:28;;;;;;;3.50;2.15;;;24.80;72.50;;;;;;10940222;32;20027;-73
2023/06/13 20:16:33;;;;;;;2.60;1.83;;;24.80;72.70;;;;;;10933530;32;20042;-73
2023/06/13 20:22:40;;;;;;;3.37;2.00;;;24.80;72.70;;;;;;10947308;32;20011;-73
2023/06/13 20:28:42;;;;;;;3.33;2.08;;;24.80;73.20;;;;;;10942814;32;20042;-73
2023/06/13 20:34:44;;;;;;;3.55;2.05;;;24.70;73.80;;;;;;10946666;32;20045;-73
2023/06/13 20:40:48;;;;;;;3.35;2.33;;;24.70;74.80;;;;;;10946139;32;20037;-73
2023/06/13 20:46:49;;;;;;;3.85;2.10;;;24.60;75.70;;;;;;10946210;32;20041;-74
2023/06/13 20:52:51;;;;;;;7.55;2.33;;;24.40;76.30;;;;;;10945981;32;20014;-73
2023/06/13 20:58:53;;;;;;;6.45;2.78;;;24.30;76.70;;;;;;10945844;32;20415;-73
2023/06/13 21:04:56;;;;;;;3.45;2.00;;;24.20;77.00;;;;;;10930791;32;20057;-73
2023/06/13 21:11:00;;;;;;;5.37;3.00;;;24.20;76.90;;;;;;10931714;32;20031;-73
2023/06/13 21:17:02;;;;;;;5.12;2.95;;;24.30;76.80;;;;;;10945409;32;20049;-73
2023/06/13 21:23:04;;;;;;;4.22;2.67;;;24.20;76.80;;;;;;10940408;32;20018;-73
2023/06/13 21:29:36;;;;;;;4.30;2.20;;;24.20;76.80;;;;;;10945011;32;20031;-73
2023/06/13 21:35:47;;;;;;;4.15;2.80;;;24.10;76.90;;;;;;10944591;32;20042;-73
2023/06/13 21:41:48;;;;;;;2.78;1.75;;;24.20;77.00;;;;;;10944420;32;20019;-73
2023/06/13 21:47:51;;;;;;;5.62;1.87;;;24.10;77.10;;;;;;10930878;32;20011;-73
2023/06/13 21:53:53;;;;;;;3.92;1.73;;;24.00;77.20;;;;;;10943991;32;20027;-73
2023/06/13 21:59:55;;;;;;;5.12;2.80;;;24.00;77.30;;;;;;10917884;32;20026;-73
2023/06/13 22:05:57;;;;;;;3.85;2.20;;;24.00;77.10;;;;;;10943793;32;20030;-74
2023/06/13 22:12:04;;;;;;;2.87;1.87;;;24.00;77.20;;;;;;10943363;32;20022;-73
2023/06/13 22:18:06;;;;;;;5.20;2.75;;;23.90;77.80;;;;;;10943227;32;20054;-73
2023/06/13 22:24:08;;;;;;;3.60;2.35;;;23.80;78.40;;;;;;10929592;32;20325;-74
2023/06/13 22:30:11;;;;;;;4.22;2.47;;;23.80;78.80;;;;;;10929284;32;20049;-73
2023/06/13 22:36:13;;;;;;;3.05;2.15;;;23.80;78.70;;;;;;10942546;32;20396;-73
2023/06/13 22:42:15;;;;;;;4.37;2.87;;;23.80;78.70;;;;;;10942541;32;20046;-73
2023/06/13 22:48:17;;;;;;;4.25;2.67;;;23.70;78.90;;;;;;10940347;32;20026;-73
2023/06/13 22:54:20;;;;;;;4.87;2.78;;;23.70;79.00;;;;;;10942093;32;20030;-73
2023/06/13 23:00:23;;;;;;;3.55;2.08;;;23.70;78.90;;;;;;10941877;32;20041;-73
2023/06/13 23:06:28;;;;;;;2.97;2.00;;;23.70;78.90;;;;;;10941758;32;20326;-73
2023/06/13 23:12:37;;;;;;;3.40;2.15;;;23.70;79.20;;;;;;10941584;32;20340;-73
2023/06/13 23:18:42;;;;;;;2.90;1.85;;;23.60;79.40;;;;;;10939047;32;20412;-74
2023/06/13 23:24:44;;;;;;;4.53;2.53;;;23.60;79.60;;;;;;10562802;32;11858459;-73
2023/06/13 23:30:46;;;;;;;3.45;2.17;;;23.40;79.70;;;;;;10901610;27;20135;-73
2023/06/13 23:36:49;;;;;;;4.93;3.22;;;23.40;79.70;;;;;;10900339;32;20074;-74
2023/06/13 23:42:52;;;;;;;4.18;3.35;;;23.10;79.80;;;;;;10898588;32;20031;-74
2023/06/13 23:48:54;;;;;;;3.97;2.65;;;22.90;80.00;;;;;;10907261;32;20306;-73
2023/06/13 23:54:56;;;;;;;3.92;2.72;;;23.00;80.60;;;;;;10997495;32;20048;-73
